createdAt,value
2023-02-02T00:05:01.424Z,72.17
2023-02-02T00:12:03.073Z,72.59
2023-02-02T00:19:18.502Z,71.86
2023-02-02T00:26:20.232Z,71.93
2023-02-02T00:33:21.764Z,71.26
2023-02-02T00:40:23.341Z,72.11
2023-02-02T00:47:25.263Z,72.80
2023-02-02T00:54:27.136Z,72.50
2023-02-02T01:01:28.774Z,73.00
2023-02-02T01:08:30.389Z,74.19
2023-02-02T01:15:31.938Z,74.63
2023-02-02T01:22:38.431Z,74.84
2023-02-02T01:29:40.002Z,75.71
2023-02-02T01:36:41.580Z,77.58
2023-02-02T01:43:43.155Z,77.72
2023-02-02T01:50:44.729Z,77.63
2023-02-02T01:58:11.136Z,77.67
2023-02-02T02:05:12.644Z,78.25
2023-02-02T02:12:15.481Z,78.32
2023-02-02T02:19:35.744Z,78.51
2023-02-02T02:26:54.438Z,77.74
2023-02-02T02:34:16.031Z,76.99
2023-02-02T02:41:20.808Z,76.86
2023-02-02T02:48:22.453Z,76.23
2023-02-02T02:55:25.050Z,76.10
2023-02-02T03:02:41.731Z,75.01
2023-02-02T03:09:43.277Z,75.65
2023-02-02T03:16:44.796Z,74.63
2023-02-02T03:23:46.315Z,74.35
2023-02-02T03:30:47.911Z,74.89
2023-02-02T03:37:49.541Z,74.77
2023-02-02T03:44:51.119Z,74.96
2023-02-02T03:51:52.651Z,74.95
2023-02-02T03:58:54.169Z,74.96
2023-02-02T04:05:55.683Z,74.01
2023-02-02T04:12:57.323Z,74.89
2023-02-02T04:19:59.252Z,74.75
2023-02-02T04:27:00.935Z,74.86
2023-02-02T04:34:02.642Z,73.78
2023-02-02T04:41:08.150Z,73.53
2023-02-02T04:48:09.807Z,73.59
2023-02-02T04:55:11.602Z,73.30
2023-02-02T05:02:13.153Z,72.99
2023-02-02T05:09:15.404Z,72.50
2023-02-02T05:16:18.106Z,73.20
2023-02-02T05:23:19.893Z,73.62
2023-02-02T05:30:21.642Z,73.82
2023-02-02T05:37:23.279Z,73.50
2023-02-02T05:44:24.945Z,73.81
2023-02-02T05:51:29.837Z,73.48
2023-02-02T05:58:31.504Z,73.53
2023-02-02T06:05:33.463Z,73.05
2023-02-02T06:12:35.000Z,72.23
2023-02-02T06:19:36.556Z,71.09
2023-02-02T06:26:38.167Z,70.93
2023-02-02T06:33:40.139Z,71.38
2023-02-02T06:40:41.687Z,70.82
2023-02-02T06:47:43.403Z,70.35
2023-02-02T06:54:44.988Z,70.45
2023-02-02T07:01:51.561Z,69.82
2023-02-02T07:09:01.774Z,69.52
2023-02-02T07:16:05.032Z,68.68
2023-02-02T07:23:06.719Z,68.21
2023-02-02T07:30:09.193Z,66.74
2023-02-02T07:37:10.921Z,64.58
2023-02-02T07:44:15.337Z,64.99
2023-02-02T07:51:18.133Z,65.48
2023-02-02T07:58:19.741Z,64.51
2023-02-02T08:05:22.789Z,64.97
2023-02-02T08:12:26.435Z,66.49
2023-02-02T08:19:28.053Z,68.52
2023-02-02T08:26:30.191Z,69.09
2023-02-02T08:33:31.830Z,69.77
2023-02-02T08:40:33.545Z,70.03
2023-02-02T08:47:35.235Z,70.39
2023-02-02T08:54:37.020Z,69.70
2023-02-02T09:01:38.582Z,69.74
2023-02-02T09:08:40.579Z,69.17
2023-02-02T09:15:42.541Z,68.04
2023-02-02T09:22:47.385Z,67.61
2023-02-02T09:29:49.272Z,66.12
2023-02-02T09:36:51.984Z,65.75
2023-02-02T09:44:26.431Z,66.36
2023-02-02T09:51:31.416Z,65.56
2023-02-02T09:58:48.423Z,64.77
2023-02-02T10:05:57.933Z,63.49
2023-02-02T10:13:04.775Z,63.22
2023-02-02T10:20:40.512Z,60.52
2023-02-02T10:27:46.147Z,61.38
2023-02-02T10:35:11.087Z,58.68
2023-02-02T10:42:31.154Z,59.26
2023-02-02T10:49:34.117Z,58.21
2023-02-02T10:56:38.013Z,56.68
2023-02-02T11:03:40.180Z,55.06
2023-02-02T11:10:43.608Z,55.50
2023-02-02T11:17:45.153Z,54.84
2023-02-02T11:24:47.799Z,54.64
2023-02-02T11:31:49.342Z,53.26
2023-02-02T11:39:16.269Z,53.53
2023-02-02T11:46:23.606Z,55.00
2023-02-02T11:53:36.685Z,53.77
2023-02-02T12:00:51.731Z,54.75
2023-02-02T12:07:59.846Z,55.23
2023-02-02T12:15:20.185Z,57.10
2023-02-02T12:22:51.065Z,57.71
2023-02-02T12:30:11.418Z,57.90
2023-02-02T12:37:47.508Z,59.41
2023-02-02T12:44:56.220Z,60.27
2023-02-02T12:52:03.374Z,60.29
2023-02-02T12:59:31.153Z,59.55
2023-02-02T13:06:52.347Z,57.11
2023-02-02T13:13:53.865Z,57.29
2023-02-02T13:21:00.764Z,54.92
2023-02-02T13:28:02.429Z,53.28
2023-02-02T13:35:22.022Z,53.77
2023-02-02T13:42:55.919Z,53.79
2023-02-02T13:50:03.921Z,52.20
2023-02-02T13:57:11.303Z,50.81
2023-02-02T14:04:26.470Z,50.26
2023-02-02T14:11:30.753Z,50.61
2023-02-02T14:18:56.955Z,50.59
2023-02-02T14:26:06.315Z,50.93
2023-02-02T14:33:37.105Z,51.45
2023-02-02T14:40:49.898Z,51.59
2023-02-02T14:48:07.212Z,51.04
2023-02-02T14:55:27.283Z,51.00
2023-02-02T15:02:29.095Z,51.16
2023-02-02T15:09:37.274Z,51.02
2023-02-02T15:16:38.840Z,51.94
2023-02-02T15:23:42.012Z,52.71
2023-02-02T15:30:44.961Z,52.59
2023-02-02T15:37:49.326Z,49.85
2023-02-02T15:44:50.828Z,51.58
2023-02-02T15:51:53.422Z,50.52
2023-02-02T15:58:56.547Z,49.82
2023-02-02T16:05:58.122Z,50.48
2023-02-02T16:12:59.666Z,51.25
2023-02-02T16:20:13.139Z,50.71
2023-02-02T16:27:19.126Z,51.92
2023-02-02T16:34:38.946Z,51.34
2023-02-02T16:41:40.505Z,51.89
2023-02-02T16:48:45.918Z,52.36
2023-02-02T16:55:50.845Z,52.07
2023-02-02T17:03:06.608Z,53.22
2023-02-02T17:10:17.295Z,53.22
2023-02-02T17:17:18.910Z,53.63
2023-02-02T17:24:20.479Z,53.92
2023-02-02T17:31:22.248Z,53.79
2023-02-02T17:38:24.425Z,54.34
2023-02-02T17:45:34.157Z,55.14
2023-02-02T17:52:38.216Z,55.12
2023-02-02T17:59:39.749Z,55.26
2023-02-02T18:06:41.341Z,55.72
2023-02-02T18:13:43.427Z,55.99
2023-02-02T18:20:46.601Z,56.47
2023-02-02T18:27:50.517Z,56.81
2023-02-02T18:34:55.602Z,57.49
2023-02-02T18:41:57.539Z,57.94
2023-02-02T18:48:59.135Z,58.15
2023-02-02T18:56:05.278Z,58.38
2023-02-02T19:03:06.918Z,58.69
2023-02-02T19:10:08.840Z,59.21
2023-02-02T19:17:24.392Z,59.45
2023-02-02T19:24:26.789Z,59.79
2023-02-02T19:31:28.523Z,60.50
2023-02-02T19:38:30.223Z,61.01
2023-02-02T19:45:32.841Z,60.97
2023-02-02T19:52:34.575Z,61.58
2023-02-02T19:59:36.196Z,62.28
2023-02-02T20:06:52.615Z,62.61
2023-02-02T20:13:59.756Z,62.55
2023-02-02T20:21:01.320Z,61.91
2023-02-02T20:28:05.217Z,59.17
2023-02-02T20:35:37.068Z,59.32
2023-02-02T20:42:38.732Z,58.49
2023-02-02T20:49:40.278Z,59.58
2023-02-02T20:56:41.872Z,59.39
2023-02-02T21:03:43.399Z,59.99
2023-02-02T21:10:44.936Z,60.28
2023-02-02T21:17:46.610Z,60.84
2023-02-02T21:24:48.216Z,59.82
2023-02-02T21:31:49.908Z,60.70
2023-02-02T21:38:51.470Z,61.22
2023-02-02T21:45:53.233Z,61.25
2023-02-02T21:53:21.467Z,62.07
2023-02-02T22:00:28.355Z,62.53
2023-02-02T22:07:30.573Z,63.55
2023-02-02T22:14:34.912Z,64.32
2023-02-02T22:21:36.456Z,64.18
2023-02-02T22:28:39.826Z,64.42
2023-02-02T22:35:41.925Z,64.74
2023-02-02T22:42:43.682Z,65.54
2023-02-02T22:49:45.205Z,65.69
2023-02-02T22:56:46.720Z,66.17
2023-02-02T23:03:49.487Z,66.34
2023-02-02T23:10:51.045Z,66.88
2023-02-02T23:17:53.001Z,67.31
2023-02-02T23:24:54.587Z,67.42
2023-02-02T23:31:56.141Z,67.81
2023-02-02T23:38:57.668Z,68.24
2023-02-02T23:46:00.143Z,68.26
2023-02-02T23:53:01.788Z,68.59
